Albert, Kansas
Current Conditions -  °F | °C
As of 4:35 AM on Monday 20 Oct 2014 (Local Time) from KGBD Reporting Station
Overcast Overcast  
Wind Chill: 46°   Ceiling: 300
Heat Index: 46°   Visibility: 0.5mi
Dew Point: 43°   Wind: 0mph
Humidity: 87%   Direction: NA
Pressure: 30.02"   Gusts: NA
Location:  38.45°N, 99.01°W
Report Text: KGBD 200935Z AUTO 00000KT 1/2SM OVC003 08/06 A3002 RMK AO1
Loading
Personal Weather Stations






























Interactive Weather Map
Tropical Storm Tracking
New forecast layout! Learn more

10-Day Weather Forecast

Advertisements
Track Severe Weather on mobile